Armstrong, Missouri
Current Conditions -  °F | °C
As of 12:35 AM on Saturday 25 Oct 2014 (Local Time) from KVER Reporting Station
Broken Clouds Broken Clouds  
Wind Chill: 65°   Ceiling: 4900
Heat Index: 65°   Visibility: 10mi
Dew Point: 60°   Wind: 5mph
Humidity: 82%   Direction: 220°SW
Pressure: 29.99"   Gusts: NA
Location:  39.27°N, 92.7°W
Report Text: KVER 250535Z AUTO 22004KT 10SM BKN049 19/16 A2999 RMK AO2 T01860155
Loading
Personal Weather Stations






























Interactive Weather Map
Tropical Storm Tracking
New forecast layout! Learn more

10-Day Weather Forecast

Advertisements
Track Severe Weather on mobile